Time;durP1;ratioP1;P1;durP2;ratioP2;P2;SDS_P1;SDS_P2;PMS_P1;PMS_P2;Temp;Humidity;BMP_temperature;BMP_pressure;BME280_temperature;BME280_humidity;BME280_pressure;Samples;Min_cycle;Max_cycle;Signal;HPM_P1;HPM_P2
2022/05/19 00:01:59;;;;;;;26.37;21.57;;;14.30;81.60;;;;;;4814687;29;20287;-66
2022/05/19 00:04:25;;;;;;;34.03;24.03;;;14.30;81.40;;;;;;4834776;29;20295;-66
2022/05/19 00:06:52;;;;;;;32.27;24.20;;;14.30;81.70;;;;;;4833986;29;20359;-66
2022/05/19 00:09:18;;;;;;;27.60;23.50;;;14.30;81.50;;;;;;4847325;29;20304;-66
2022/05/19 00:11:45;;;;;;;34.73;24.70;;;14.30;81.60;;;;;;4860821;29;20291;-66
2022/05/19 00:14:11;;;;;;;34.37;25.43;;;14.30;81.80;;;;;;4864680;29;20610;-67
2022/05/19 00:16:38;;;;;;;27.83;23.27;;;14.30;81.80;;;;;;4824638;29;20302;-67
2022/05/19 00:19:04;;;;;;;29.53;23.77;;;14.30;81.80;;;;;;4803267;29;20283;-66
2022/05/19 00:21:30;;;;;;;29.93;24.87;;;14.40;82.00;;;;;;4818772;29;20798;-66
2022/05/19 00:23:56;;;;;;;32.77;24.80;;;14.40;82.00;;;;;;4807130;29;20684;-66
2022/05/19 00:26:22;;;;;;;32.87;26.00;;;14.40;82.00;;;;;;4833332;29;20122;-66
2022/05/19 00:28:47;;;;;;;28.40;25.37;;;14.40;81.80;;;;;;4831996;29;20049;-66
2022/05/19 00:31:13;;;;;;;28.17;23.30;;;14.30;81.80;;;;;;4818210;29;20487;-66
2022/05/19 00:33:40;;;;;;;34.37;24.03;;;14.30;82.10;;;;;;4818691;29;20562;-66
2022/05/19 00:36:11;;;;;;;34.20;24.00;;;14.30;82.00;;;;;;4819989;29;20322;-66
2022/05/19 00:38:37;;;;;;;29.10;23.57;;;14.20;82.40;;;;;;4822982;29;20374;-66
2022/05/19 00:41:03;;;;;;;32.83;25.20;;;14.20;82.10;;;;;;4833111;29;20294;-66
2022/05/19 00:43:31;;;;;;;31.93;24.73;;;14.20;82.30;;;;;;4861350;29;20298;-66
2022/05/19 00:46:13;;;;;;;32.97;24.33;;;14.20;82.10;;;;;;4832733;29;20359;-66
2022/05/19 00:49:16;;;;;;;29.80;24.80;;;14.20;82.30;;;;;;4825680;29;20772;-66
2022/05/19 00:51:56;;;;;;;28.53;22.07;;;14.20;82.40;;;;;;4867347;29;20360;-66
2022/05/19 00:54:27;;;;;;;26.07;23.23;;;14.20;82.30;;;;;;4813076;29;20296;-66
2022/05/19 00:56:55;;;;;;;32.63;24.20;;;14.20;82.40;;;;;;4834576;29;20283;-67
2022/05/19 00:59:36;;;;;;;31.03;25.77;;;14.20;82.40;;;;;;4828494;29;20308;-67
2022/05/19 01:02:06;;;;;;;29.57;23.13;;;14.20;82.50;;;;;;4828459;29;20283;-66
2022/05/19 01:04:38;;;;;;;28.67;22.73;;;14.20;82.80;;;;;;4832442;29;20291;-66
2022/05/19 01:07:17;;;;;;;28.23;24.77;;;14.30;82.70;;;;;;4848767;29;20366;-66
2022/05/19 01:09:44;;;;;;;29.37;23.37;;;14.30;82.60;;;;;;4840382;29;20310;-66
2022/05/19 01:12:10;;;;;;;30.83;24.13;;;14.30;82.50;;;;;;4817781;29;20298;-66
2022/05/19 01:14:37;;;;;;;31.47;24.90;;;14.40;82.90;;;;;;4801819;29;20293;-66
2022/05/19 01:17:05;;;;;;;29.90;25.33;;;14.40;82.80;;;;;;4802419;29;20295;-67
2022/05/19 01:19:38;;;;;;;34.23;26.97;;;14.40;83.00;;;;;;4824469;29;20286;-67
2022/05/19 01:22:09;;;;;;;36.73;28.70;;;14.40;83.00;;;;;;4825388;29;20418;-67
2022/05/19 01:25:02;;;;;;;38.27;28.77;;;14.40;83.10;;;;;;4824626;29;20880;-66
2022/05/19 01:27:28;;;;;;;32.73;27.53;;;14.50;83.20;;;;;;4844144;29;20780;-66
2022/05/19 01:29:54;;;;;;;35.00;26.63;;;14.50;83.00;;;;;;4812740;29;20315;-67
2022/05/19 01:32:29;;;;;;;35.20;28.43;;;14.50;83.00;;;;;;4854334;29;20294;-67
2022/05/19 01:34:57;;;;;;;35.38;26.80;;;14.50;82.90;;;;;;4830223;29;20370;-67
2022/05/19 01:37:23;;;;;;;34.73;27.47;;;14.50;82.90;;;;;;4817287;29;20042;-67
2022/05/19 01:40:14;;;;;;;36.43;27.73;;;14.50;82.90;;;;;;4798940;29;20307;-67
2022/05/19 01:42:47;;;;;;;35.43;27.80;;;14.50;83.00;;;;;;4827840;29;20641;-67
2022/05/19 01:45:41;;;;;;;37.13;26.13;;;14.50;83.40;;;;;;4864412;29;20347;-67
2022/05/19 01:48:20;;;;;;;36.03;28.00;;;14.50;83.10;;;;;;4831600;29;20306;-67
2022/05/19 01:51:12;;;;;;;36.53;27.50;;;14.60;83.50;;;;;;4822278;29;20292;-67
2022/05/19 01:53:40;;;;;;;39.87;27.40;;;14.60;83.40;;;;;;4848624;29;20275;-67
2022/05/19 01:56:19;;;;;;;39.37;28.57;;;14.60;83.50;;;;;;4816186;29;20366;-67
2022/05/19 01:59:06;;;;;;;38.73;27.70;;;14.70;83.30;;;;;;4833510;29;20601;-67
2022/05/19 02:01:32;;;;;;;35.13;27.97;;;14.70;83.50;;;;;;4822784;29;20370;-67
2022/05/19 02:04:09;;;;;;;35.70;28.60;;;14.70;83.80;;;;;;4858777;29;20366;-67
2022/05/19 02:06:44;;;;;;;35.07;26.73;;;14.70;83.80;;;;;;4865070;29;20088;-67
2022/05/19 02:09:17;;;;;;;34.78;27.45;;;14.70;83.40;;;;;;4831175;29;20303;-67
2022/05/19 02:11:55;;;;;;;37.20;28.07;;;14.70;83.50;;;;;;4819570;29;20049;-67
2022/05/19 02:14:28;;;;;;;34.43;27.37;;;14.60;83.60;;;;;;4821248;29;20326;-67
2022/05/19 02:16:55;;;;;;;35.87;28.07;;;14.60;83.30;;;;;;4846364;29;20402;-67
2022/05/19 02:19:29;;;;;;;34.30;27.10;;;14.60;83.30;;;;;;4802315;29;20299;-67
2022/05/19 02:21:55;;;;;;;34.42;27.10;;;14.60;83.20;;;;;;4818172;29;20344;-67
2022/05/19 02:24:25;;;;;;;33.40;26.17;;;14.60;83.20;;;;;;4823981;29;20105;-67
2022/05/19 02:26:51;;;;;;;35.63;27.43;;;14.60;83.10;;;;;;4811600;29;20069;-67
2022/05/19 02:29:22;;;;;;;32.53;27.10;;;14.60;82.90;;;;;;4824942;29;20374;-67
2022/05/19 02:31:48;;;;;;;32.23;25.23;;;14.60;83.20;;;;;;4818336;29;20284;-67
2022/05/19 02:34:14;;;;;;;35.63;27.97;;;14.70;83.10;;;;;;4801460;29;20283;-67
2022/05/19 02:36:41;;;;;;;30.40;25.23;;;14.70;83.10;;;;;;4804027;29;20344;-67
2022/05/19 02:39:07;;;;;;;37.60;27.17;;;14.70;83.00;;;;;;4832795;29;20050;-67
2022/05/19 02:41:33;;;;;;;30.10;25.73;;;14.80;82.80;;;;;;4830218;29;20287;-67
2022/05/19 02:43:59;;;;;;;31.00;25.00;;;14.80;82.70;;;;;;4832823;29;20386;-67
2022/05/19 02:46:25;;;;;;;33.53;26.67;;;14.80;82.60;;;;;;4827789;29;20054;-67
2022/05/19 02:48:51;;;;;;;35.07;25.13;;;14.80;82.70;;;;;;4825158;29;20057;-67
2022/05/19 02:51:16;;;;;;;32.60;26.53;;;14.80;82.80;;;;;;4831099;29;20090;-67
2022/05/19 02:53:42;;;;;;;30.07;25.30;;;14.90;82.60;;;;;;4832931;29;20049;-67
2022/05/19 02:56:08;;;;;;;35.53;25.33;;;14.90;82.70;;;;;;4816146;29;20128;-67
2022/05/19 02:58:33;;;;;;;32.00;24.73;;;15.00;82.40;;;;;;4823438;29;20058;-67
2022/05/19 03:00:59;;;;;;;32.70;24.73;;;15.00;82.50;;;;;;4847863;29;20046;-67
2022/05/19 03:03:25;;;;;;;32.97;25.60;;;15.10;82.20;;;;;;4825188;29;20049;-67
2022/05/19 03:05:50;;;;;;;35.33;26.00;;;15.10;81.90;;;;;;4818189;29;20039;-67
2022/05/19 03:08:16;;;;;;;31.73;25.77;;;15.10;81.80;;;;;;4816036;29;20050;-67
2022/05/19 03:10:44;;;;;;;32.80;25.77;;;15.20;81.80;;;;;;4830993;29;20126;-67
2022/05/19 03:13:21;;;;;;;35.23;27.53;;;15.20;81.30;;;;;;4833276;29;20034;-67
2022/05/19 03:15:47;;;;;;;34.77;25.67;;;15.30;81.40;;;;;;4816434;29;20374;-67
2022/05/19 03:18:14;;;;;;;33.93;25.57;;;15.30;81.20;;;;;;4825102;29;20297;-67
2022/05/19 03:20:40;;;;;;;30.63;25.30;;;15.30;81.20;;;;;;4829826;29;20287;-67
2022/05/19 03:23:06;;;;;;;32.23;25.17;;;15.30;81.20;;;;;;4825740;29;20306;-67
2022/05/19 03:25:32;;;;;;;38.07;28.13;;;15.40;80.90;;;;;;4829479;29;20062;-67
2022/05/19 03:27:58;;;;;;;31.90;26.80;;;15.40;80.90;;;;;;4832663;29;20299;-67
2022/05/19 03:30:24;;;;;;;32.17;27.13;;;15.40;80.90;;;;;;4829183;29;20129;-67
2022/05/19 03:32:49;;;;;;;35.20;26.80;;;15.40;80.80;;;;;;4813775;29;20081;-67
2022/05/19 03:35:16;;;;;;;34.30;27.33;;;15.40;80.80;;;;;;4806348;29;20375;-67
2022/05/19 03:37:43;;;;;;;33.77;26.50;;;15.40;80.90;;;;;;4819451;29;20048;-67
2022/05/19 03:40:10;;;;;;;35.30;27.90;;;15.40;80.90;;;;;;4818526;29;20290;-67
2022/05/19 03:42:36;;;;;;;37.27;27.47;;;15.40;80.80;;;;;;4833123;29;20323;-67
2022/05/19 03:45:03;;;;;;;34.37;26.87;;;15.40;80.90;;;;;;4819123;29;20326;-67
2022/05/19 03:47:29;;;;;;;33.07;27.67;;;15.40;80.70;;;;;;4835029;29;20602;-67
2022/05/19 03:49:55;;;;;;;36.20;28.37;;;15.40;80.60;;;;;;4813693;29;20319;-67
2022/05/19 03:52:20;;;;;;;38.17;28.80;;;15.40;80.70;;;;;;4829046;29;20081;-67
2022/05/19 03:54:46;;;;;;;35.40;28.23;;;15.40;80.70;;;;;;4823967;29;20038;-67
2022/05/19 03:57:13;;;;;;;37.50;28.27;;;15.40;80.60;;;;;;4835470;29;20384;-67
2022/05/19 03:59:39;;;;;;;38.63;28.43;;;15.40;80.90;;;;;;4844809;29;20118;-67
2022/05/19 04:02:05;;;;;;;34.63;28.60;;;15.40;80.80;;;;;;4804249;29;20284;-67
2022/05/19 04:04:31;;;;;;;38.47;28.77;;;15.40;81.00;;;;;;4819276;29;20293;-67
2022/05/19 04:06:57;;;;;;;37.23;29.03;;;15.40;81.00;;;;;;4835307;29;20049;-67
2022/05/19 04:09:22;;;;;;;34.37;27.73;;;15.40;80.90;;;;;;4843830;29;20368;-67
2022/05/19 04:11:49;;;;;;;36.70;29.50;;;15.40;80.90;;;;;;4815717;29;20114;-67
2022/05/19 04:14:15;;;;;;;43.57;29.40;;;15.50;80.90;;;;;;4813811;29;20034;-67
2022/05/19 04:16:41;;;;;;;43.60;30.90;;;15.50;81.00;;;;;;4819819;29;20489;-67
2022/05/19 04:19:07;;;;;;;39.23;30.57;;;15.60;81.20;;;;;;4818423;29;20398;-67
2022/05/19 04:21:32;;;;;;;41.47;31.67;;;15.60;81.40;;;;;;4822040;29;20392;-67
2022/05/19 04:24:00;;;;;;;44.50;32.13;;;15.60;81.30;;;;;;4816642;29;20476;-67
2022/05/19 04:26:26;;;;;;;41.10;31.87;;;15.70;81.30;;;;;;4817650;29;20062;-67
2022/05/19 04:28:52;;;;;;;39.50;31.17;;;15.70;81.10;;;;;;4851884;29;20892;-67
2022/05/19 04:31:18;;;;;;;36.63;31.07;;;15.80;81.00;;;;;;4832312;29;20291;-67
2022/05/19 04:33:43;;;;;;;42.93;32.87;;;15.80;80.90;;;;;;4830329;29;20053;-67
2022/05/19 04:36:09;;;;;;;38.00;30.77;;;15.80;81.00;;;;;;4809486;29;20121;-67
2022/05/19 04:38:35;;;;;;;38.43;30.80;;;15.90;80.90;;;;;;4845057;29;20046;-67
2022/05/19 04:41:03;;;;;;;41.63;33.07;;;15.90;80.70;;;;;;4817860;29;20098;-67
2022/05/19 04:43:32;;;;;;;44.30;34.37;;;16.00;80.90;;;;;;4830320;29;20311;-67
2022/05/19 04:45:58;;;;;;;44.03;33.47;;;16.00;80.80;;;;;;4826576;29;20320;-67
2022/05/19 04:48:25;;;;;;;40.60;32.20;;;16.00;81.00;;;;;;4862590;29;20395;-67
2022/05/19 04:50:57;;;;;;;38.20;31.17;;;16.10;80.80;;;;;;4825092;29;20507;-67
2022/05/19 04:53:23;;;;;;;41.97;32.70;;;16.20;80.70;;;;;;4847600;29;20312;-67
2022/05/19 04:55:49;;;;;;;43.67;32.87;;;16.30;80.60;;;;;;4828506;29;21030;-67
2022/05/19 04:58:15;;;;;;;43.60;34.83;;;16.50;80.60;;;;;;4833106;29;20289;-67
2022/05/19 05:00:41;;;;;;;42.93;33.87;;;16.60;80.70;;;;;;4829506;29;20053;-67
2022/05/19 05:03:07;;;;;;;41.67;32.50;;;16.70;80.70;;;;;;4848996;29;20382;-67
2022/05/19 05:05:33;;;;;;;38.87;32.03;;;16.70;80.50;;;;;;4855878;29;20366;-67
2022/05/19 05:07:58;;;;;;;41.40;32.87;;;16.80;80.30;;;;;;4854099;29;20134;-67
2022/05/19 05:10:24;;;;;;;41.77;33.03;;;16.80;80.60;;;;;;4805110;29;20395;-67
2022/05/19 05:12:50;;;;;;;41.03;31.23;;;16.90;80.50;;;;;;4834912;29;20396;-67
2022/05/19 05:15:16;;;;;;;35.10;29.23;;;17.00;80.60;;;;;;4819690;29;20053;-67
2022/05/19 05:17:42;;;;;;;35.67;27.93;;;17.00;80.50;;;;;;4817473;29;20050;-67
2022/05/19 05:20:09;;;;;;;31.93;25.23;;;17.10;80.40;;;;;;4820335;29;20051;-67
2022/05/19 05:22:36;;;;;;;34.07;27.07;;;17.20;81.20;;;;;;4822635;29;20081;-67
2022/05/19 05:25:09;;;;;;;40.37;28.67;;;17.30;81.40;;;;;;4833249;29;20303;-67
2022/05/19 05:27:35;;;;;;;42.50;29.53;;;17.30;81.80;;;;;;4808915;29;20359;-67
2022/05/19 05:30:01;;;;;;;38.60;29.03;;;17.30;81.40;;;;;;4802767;29;20316;-67
2022/05/19 05:32:26;;;;;;;40.90;31.13;;;17.30;81.70;;;;;;4832553;29;20381;-67
2022/05/19 05:34:52;;;;;;;37.80;30.30;;;17.30;81.40;;;;;;4801872;29;20474;-67
2022/05/19 05:37:18;;;;;;;42.03;31.03;;;17.20;81.50;;;;;;4816930;29;20144;-67
2022/05/19 05:39:43;;;;;;;37.53;30.37;;;17.10;82.10;;;;;;4801818;29;20054;-67
2022/05/19 05:42:09;;;;;;;36.50;28.63;;;17.10;82.50;;;;;;4827250;29;20050;-67
2022/05/19 05:44:35;;;;;;;36.67;27.43;;;17.00;83.50;;;;;;4805301;29;20050;-67
2022/05/19 05:47:01;;;;;;;34.10;27.23;;;17.00;83.70;;;;;;4811238;29;20499;-69
2022/05/19 05:49:27;;;;;;;38.17;28.37;;;17.00;83.60;;;;;;4858712;29;20058;-69
2022/05/19 05:51:52;;;;;;;32.43;26.03;;;17.00;84.40;;;;;;4833903;29;20049;-69
2022/05/19 05:54:18;;;;;;;38.40;27.43;;;16.90;84.40;;;;;;4831278;29;20049;-68
2022/05/19 05:56:44;;;;;;;39.20;28.03;;;16.90;84.80;;;;;;4826501;29;20511;-69
2022/05/19 05:59:10;;;;;;;39.70;27.87;;;16.90;85.00;;;;;;4828578;29;20423;-69
2022/05/19 06:01:36;;;;;;;32.87;27.30;;;16.90;85.30;;;;;;4834370;29;20042;-69
2022/05/19 06:04:02;;;;;;;35.43;27.40;;;16.90;85.70;;;;;;4820623;29;20299;-69
2022/05/19 06:06:28;;;;;;;32.10;24.73;;;16.90;85.60;;;;;;4811211;29;20558;-69
2022/05/19 06:08:54;;;;;;;35.63;26.70;;;16.90;85.70;;;;;;4829017;29;20816;-69
2022/05/19 06:11:20;;;;;;;34.33;24.87;;;16.90;85.70;;;;;;4810999;29;20303;-69
2022/05/19 06:13:46;;;;;;;34.10;26.07;;;16.90;86.10;;;;;;4802690;29;20324;-69
2022/05/19 06:16:12;;;;;;;35.80;27.90;;;16.90;86.20;;;;;;4812366;29;20038;-69
2022/05/19 06:18:38;;;;;;;34.17;26.57;;;16.90;86.30;;;;;;4842670;29;20050;-69
2022/05/19 06:21:04;;;;;;;34.27;27.73;;;16.90;86.60;;;;;;4830440;29;20125;-69
2022/05/19 06:23:30;;;;;;;37.53;30.00;;;16.90;87.00;;;;;;4841684;29;20323;-69
2022/05/19 06:25:56;;;;;;;38.47;30.83;;;16.90;86.80;;;;;;4823757;29;20314;-69
2022/05/19 06:28:22;;;;;;;41.43;32.17;;;16.90;86.70;;;;;;4815606;29;20287;-69
2022/05/19 06:30:48;;;;;;;42.40;32.73;;;16.90;86.80;;;;;;4825985;29;20074;-68
2022/05/19 06:33:17;;;;;;;45.00;33.10;;;17.00;86.90;;;;;;4827078;29;20400;-69
2022/05/19 06:35:44;;;;;;;45.67;35.80;;;17.00;87.20;;;;;;4827486;29;20304;-69
2022/05/19 06:38:09;;;;;;;41.50;35.47;;;17.10;87.00;;;;;;4826911;29;20298;-69
2022/05/19 06:40:35;;;;;;;45.67;37.40;;;17.20;87.00;;;;;;4832264;29;20291;-69
2022/05/19 06:43:06;;;;;;;46.67;39.40;;;17.20;87.00;;;;;;4829717;29;20542;-69
2022/05/19 06:45:32;;;;;;;45.20;39.00;;;17.30;86.90;;;;;;4825297;29;20302;-69
2022/05/19 06:47:57;;;;;;;50.70;39.97;;;17.40;87.00;;;;;;4845926;29;20284;-69
2022/05/19 06:50:24;;;;;;;49.10;41.30;;;17.50;86.70;;;;;;4817127;29;20569;-69
2022/05/19 06:52:53;;;;;;;50.67;41.43;;;17.60;86.90;;;;;;4814432;29;20050;-69
2022/05/19 06:55:21;;;;;;;49.17;39.70;;;17.60;86.80;;;;;;4832514;29;20287;-69
2022/05/19 06:57:47;;;;;;;49.00;40.97;;;17.70;86.80;;;;;;4819385;29;20300;-69
2022/05/19 07:00:19;;;;;;;51.30;43.87;;;17.90;87.00;;;;;;4831764;29;20294;-69
2022/05/19 07:02:53;;;;;;;56.73;44.23;;;18.00;86.90;;;;;;4803525;29;20399;-69
2022/05/19 07:05:22;;;;;;;47.80;41.03;;;18.10;86.70;;;;;;4832671;29;20394;-69
2022/05/19 07:07:48;;;;;;;58.10;47.70;;;18.20;86.40;;;;;;4860440;29;20297;-69
2022/05/19 07:10:16;;;;;;;52.23;41.97;;;18.30;86.30;;;;;;4810278;29;20328;-69
2022/05/19 07:12:43;;;;;;;55.23;44.30;;;18.40;86.40;;;;;;4831976;29;20128;-69
2022/05/19 07:15:09;;;;;;;47.80;40.57;;;18.50;86.30;;;;;;4833650;29;20309;-69
2022/05/19 07:17:35;;;;;;;51.60;43.57;;;18.60;86.20;;;;;;4855376;29;20303;-69
2022/05/19 07:22:45;;;;;;;46.57;40.63;;;18.90;86.00;;;;;;4831118;29;20148;-69
2022/05/19 07:25:11;;;;;;;44.00;36.90;;;19.10;85.80;;;;;;4817063;29;20307;-69
2022/05/19 07:27:38;;;;;;;46.60;37.37;;;19.30;85.50;;;;;;4835851;29;20639;-69
2022/05/19 07:30:05;;;;;;;44.90;37.07;;;19.40;84.90;;;;;;4816326;29;20398;-69
2022/05/19 07:32:31;;;;;;;42.33;36.60;;;19.50;84.60;;;;;;4827285;29;20787;-69
2022/05/19 07:34:57;;;;;;;45.83;39.23;;;19.60;84.10;;;;;;4833790;29;20334;-69
2022/05/19 07:37:24;;;;;;;43.27;36.20;;;19.60;83.60;;;;;;4819870;29;20125;-69
2022/05/19 07:39:51;;;;;;;42.03;36.60;;;19.60;83.50;;;;;;4819484;29;20539;-69
2022/05/19 07:42:18;;;;;;;43.13;36.90;;;19.60;83.10;;;;;;4841879;29;20304;-69
2022/05/19 07:44:44;;;;;;;41.27;34.93;;;19.60;83.10;;;;;;4834923;29;20604;-69
2022/05/19 07:47:10;;;;;;;40.03;35.03;;;19.70;82.80;;;;;;4827171;29;20371;-69
2022/05/19 07:49:36;;;;;;;37.23;33.33;;;19.70;82.90;;;;;;4846583;29;20959;-69
2022/05/19 07:52:02;;;;;;;39.03;34.03;;;19.70;82.60;;;;;;4834102;29;20061;-69
2022/05/19 07:54:28;;;;;;;39.77;34.70;;;19.70;82.50;;;;;;4834919;29;20652;-69
2022/05/19 07:56:55;;;;;;;45.00;37.17;;;19.70;82.70;;;;;;4834548;29;20306;-69
2022/05/19 07:59:21;;;;;;;40.73;34.03;;;19.80;82.60;;;;;;4824692;29;20526;-69
2022/05/19 08:01:48;;;;;;;41.47;33.13;;;19.80;82.40;;;;;;4842654;29;20102;-69
2022/05/19 08:04:15;;;;;;;37.77;33.73;;;19.80;82.90;;;;;;4848109;29;20122;-69
2022/05/19 08:06:41;;;;;;;36.87;32.87;;;19.90;82.20;;;;;;4829330;29;20137;-69
2022/05/19 08:11:54;;;;;;;39.10;32.43;;;19.90;81.90;;;;;;4854351;29;20132;-69
2022/05/19 08:17:10;;;;;;;40.80;34.80;;;20.00;81.80;;;;;;4851314;29;20053;-67
2022/05/19 08:19:39;;;;;;;40.50;33.27;;;20.00;81.50;;;;;;4834352;29;20085;-67
2022/05/19 08:22:06;;;;;;;35.23;31.40;;;20.10;81.40;;;;;;4826531;29;20050;-68
2022/05/19 08:24:32;;;;;;;33.90;29.70;;;20.10;81.10;;;;;;4826629;29;20053;-68
2022/05/19 08:27:00;;;;;;;38.43;31.17;;;20.20;80.80;;;;;;4821300;29;20070;-68
2022/05/19 08:29:26;;;;;;;37.30;31.93;;;20.30;80.80;;;;;;4826580;29;20054;-68
2022/05/19 08:31:52;;;;;;;33.93;28.97;;;20.40;79.90;;;;;;4843044;29;20468;-68
2022/05/19 08:34:18;;;;;;;34.47;27.83;;;20.50;80.10;;;;;;4828265;29;20050;-68
2022/05/19 08:36:45;;;;;;;35.97;28.67;;;20.60;80.00;;;;;;4810029;29;20054;-68
2022/05/19 08:39:12;;;;;;;37.33;29.90;;;20.60;79.60;;;;;;4826218;29;20054;-68
2022/05/19 08:41:55;;;;;;;35.17;27.80;;;20.60;79.30;;;;;;4828805;29;20128;-68
2022/05/19 08:44:49;;;;;;;33.67;27.70;;;20.60;78.80;;;;;;4804667;29;20516;-68
2022/05/19 08:47:23;;;;;;;34.60;29.50;;;20.70;78.50;;;;;;4828215;29;20376;-68
2022/05/19 08:50:01;;;;;;;34.75;27.77;;;20.80;78.50;;;;;;4807874;29;20053;-68
2022/05/19 08:52:39;;;;;;;32.97;28.47;;;21.00;78.80;;;;;;4833912;29;20081;-68
2022/05/19 08:55:06;;;;;;;37.80;29.17;;;21.20;77.90;;;;;;4815191;29;20498;-68
2022/05/19 08:57:54;;;;;;;38.27;29.03;;;21.40;77.70;;;;;;4834305;29;20057;-68
2022/05/19 09:00:29;;;;;;;33.77;26.30;;;21.50;77.30;;;;;;4820565;29;20083;-68
2022/05/19 09:03:05;;;;;;;31.80;27.80;;;21.60;76.90;;;;;;4833724;29;20064;-68
2022/05/19 09:05:52;;;;;;;32.17;27.47;;;21.70;76.30;;;;;;4834085;29;20050;-68
2022/05/19 09:08:36;;;;;;;32.80;28.57;;;21.80;76.00;;;;;;4842423;29;20396;-68
2022/05/19 09:11:21;;;;;;;31.97;27.13;;;21.90;75.70;;;;;;4863684;29;20133;-68
2022/05/19 09:14:06;;;;;;;30.15;26.92;;;22.00;75.80;;;;;;4815114;29;20043;-68
2022/05/19 09:16:38;;;;;;;32.03;27.63;;;22.00;75.20;;;;;;4826026;29;20053;-68
2022/05/19 09:19:11;;;;;;;31.90;27.40;;;21.90;75.50;;;;;;4860295;29;20058;-68
2022/05/19 09:21:40;;;;;;;35.40;28.77;;;21.70;75.10;;;;;;4827247;29;20132;-68
2022/05/19 09:24:06;;;;;;;32.67;27.43;;;21.60;75.60;;;;;;4833289;29;20471;-68
2022/05/19 09:26:55;;;;;;;32.40;28.47;;;21.60;75.80;;;;;;4817209;29;20066;-68
2022/05/19 09:29:25;;;;;;;35.20;29.07;;;21.50;75.70;;;;;;4848747;29;20415;-68
2022/05/19 09:31:54;;;;;;;34.33;28.73;;;21.60;75.90;;;;;;4850076;29;20492;-68
2022/05/19 09:34:27;;;;;;;31.90;26.67;;;21.70;75.90;;;;;;4818663;29;20133;-68
2022/05/19 09:37:15;;;;;;;31.37;27.30;;;21.90;76.00;;;;;;4821092;29;20081;-68
2022/05/19 09:39:53;;;;;;;32.10;27.57;;;22.10;75.30;;;;;;4806469;29;20555;-68
2022/05/19 09:42:55;;;;;;;28.87;25.77;;;22.30;74.60;;;;;;4818087;29;20403;-68
2022/05/19 09:45:29;;;;;;;27.53;24.57;;;22.40;74.30;;;;;;4834153;29;20102;-68
2022/05/19 09:48:01;;;;;;;30.97;25.73;;;22.50;73.90;;;;;;4831954;29;20057;-68
2022/05/19 09:50:30;;;;;;;30.13;26.33;;;22.50;73.70;;;;;;4834308;29;20045;-68
2022/05/19 09:53:07;;;;;;;31.43;27.17;;;22.50;73.10;;;;;;4821483;29;20049;-68
2022/05/19 09:55:39;;;;;;;33.10;27.10;;;22.40;73.20;;;;;;4834375;29;20499;-68
2022/05/19 09:58:09;;;;;;;29.73;25.33;;;22.30;73.00;;;;;;4846401;29;20053;-68
2022/05/19 10:00:44;;;;;;;27.70;24.80;;;22.50;73.30;;;;;;4833683;29;20098;-68
2022/05/19 10:03:18;;;;;;;29.63;24.80;;;22.80;73.20;;;;;;4854791;29;20157;-68
2022/05/19 10:05:46;;;;;;;27.60;23.23;;;22.90;73.00;;;;;;4831249;29;20053;-69
2022/05/19 10:08:39;;;;;;;25.47;22.77;;;23.00;72.20;;;;;;4809507;29;20148;-67
2022/05/19 10:11:14;;;;;;;26.97;23.03;;;23.10;71.10;;;;;;4866868;29;20058;-69
2022/05/19 10:13:45;;;;;;;24.25;21.77;;;23.10;71.40;;;;;;4830469;29;20080;-69
2022/05/19 10:16:36;;;;;;;27.40;22.97;;;22.90;71.60;;;;;;4819225;29;20050;-69
2022/05/19 10:19:36;;;;;;;27.47;23.60;;;22.90;71.20;;;;;;4848146;29;20046;-69
2022/05/19 10:22:19;;;;;;;25.30;22.60;;;22.80;71.30;;;;;;4802278;29;20058;-69
2022/05/19 10:25:23;;;;;;;25.00;22.30;;;22.80;71.40;;;;;;4817066;29;20266;-69
2022/05/19 10:31:07;;;;;;;22.67;20.23;;;22.90;71.00;;;;;;4838583;29;20047;-69
2022/05/19 10:33:51;;;;;;;21.23;18.92;;;23.00;70.10;;;;;;4827012;29;20050;-68
2022/05/19 10:36:47;;;;;;;24.03;19.50;;;23.00;68.90;;;;;;4819015;29;20446;-69
2022/05/19 10:39:44;;;;;;;23.57;20.37;;;23.20;69.10;;;;;;4834755;29;20091;-69
2022/05/19 10:42:38;;;;;;;22.47;19.10;;;23.40;68.20;;;;;;4832965;29;20050;-69
2022/05/19 10:45:25;;;;;;;20.33;18.23;;;23.70;67.70;;;;;;4843714;29;20062;-69
2022/05/19 10:48:15;;;;;;;21.13;15.97;;;23.90;67.50;;;;;;4859482;29;20432;-69
2022/05/19 10:50:52;;;;;;;20.13;16.20;;;23.90;66.20;;;;;;4836825;29;20713;-69
2022/05/19 10:53:33;;;;;;;18.47;14.43;;;24.00;65.90;;;;;;4847299;29;20052;-69
2022/05/19 10:56:24;;;;;;;16.20;14.53;;;24.00;65.80;;;;;;4823880;29;20047;-69
2022/05/19 10:59:11;;;;;;;16.77;14.90;;;24.00;65.60;;;;;;4836058;29;20060;-69
2022/05/19 11:01:55;;;;;;;14.60;11.67;;;24.10;66.00;;;;;;4832955;29;20042;-69
2022/05/19 11:04:42;;;;;;;13.63;11.97;;;24.20;63.20;;;;;;4835578;29;20038;-69
2022/05/19 11:07:14;;;;;;;12.23;10.20;;;24.30;64.40;;;;;;4834540;29;20132;-69
2022/05/19 11:10:16;;;;;;;11.53;10.33;;;24.30;63.00;;;;;;4827197;29;20474;-69
2022/05/19 11:13:06;;;;;;;13.10;9.93;;;24.50;62.80;;;;;;4865363;29;20542;-69
2022/05/19 11:15:48;;;;;;;12.40;11.00;;;24.50;63.20;;;;;;4832994;29;20082;-69
2022/05/19 11:18:31;;;;;;;11.93;10.73;;;24.60;62.50;;;;;;4823842;29;20050;-69
2022/05/19 11:20:59;;;;;;;10.43;7.80;;;24.70;63.00;;;;;;4856643;29;20125;-69
2022/05/19 11:23:46;;;;;;;10.07;7.27;;;24.70;62.50;;;;;;4829216;29;20053;-69
2022/05/19 11:26:31;;;;;;;10.77;8.00;;;24.50;61.70;;;;;;4849059;29;20058;-69
2022/05/19 11:29:06;;;;;;;9.80;8.80;;;24.40;61.80;;;;;;4843290;29;20060;-69
2022/05/19 11:32:01;;;;;;;10.45;8.35;;;24.10;62.40;;;;;;4840272;29;20139;-69
2022/05/19 11:34:31;;;;;;;10.07;8.20;;;23.80;63.30;;;;;;4847044;29;20078;-69
2022/05/19 11:37:38;;;;;;;10.07;8.97;;;23.60;64.20;;;;;;4852925;29;20038;-69
2022/05/19 11:40:22;;;;;;;8.83;7.63;;;23.40;64.90;;;;;;4824846;29;20515;-68
2022/05/19 11:42:51;;;;;;;11.15;8.70;;;23.10;66.00;;;;;;4827858;29;20045;-68
2022/05/19 11:45:47;;;;;;;9.57;8.60;;;22.90;66.60;;;;;;4863044;29;20081;-68
2022/05/19 11:55:12;;;;;;;10.20;9.10;;;22.40;69.10;;;;;;4891976;29;20059;-68
2022/05/19 11:58:04;;;;;;;9.27;8.20;;;22.10;69.90;;;;;;4802133;29;20461;-68
2022/05/19 12:00:36;;;;;;;12.07;10.00;;;21.90;71.10;;;;;;4817261;29;20085;-68
2022/05/19 12:03:18;;;;;;;17.47;12.40;;;21.60;71.90;;;;;;4821762;29;20573;-68
2022/05/19 12:06:13;;;;;;;34.67;15.10;;;21.30;73.30;;;;;;4850325;29;20133;-73
2022/05/19 12:08:41;;;;;;;;;;;20.70;77.70;;;;;;4835806;29;20125;-73
2022/05/19 12:11:16;;;;;;;19.97;7.73;;;19.80;77.30;;;;;;4833950;29;19931;-73
2022/05/19 12:13:48;;;;;;;21.77;11.67;;;19.20;79.00;;;;;;4833702;29;20122;-73
2022/05/19 12:16:17;;;;;;;16.87;10.23;;;18.80;81.10;;;;;;4851249;29;20054;-73
2022/05/19 12:19:08;;;;;;;19.53;11.63;;;18.50;83.40;;;;;;4802459;29;20277;-74
2022/05/19 12:21:51;;;;;;;18.03;11.40;;;18.20;84.80;;;;;;4816836;29;20077;-74
2022/05/19 12:24:18;;;;;;;14.70;9.47;;;18.10;86.50;;;;;;4832987;29;20038;-74
2022/05/19 12:27:13;;;;;;;10.67;9.17;;;18.00;86.40;;;;;;4847787;29;20130;-73
2022/05/19 12:30:01;;;;;;;9.77;6.00;;;17.80;87.20;;;;;;4816824;29;20400;-73
2022/05/19 12:32:35;;;;;;;7.73;5.73;;;17.70;87.60;;;;;;4856271;29;20303;-73
2022/05/19 12:35:07;;;;;;;7.72;5.78;;;17.50;87.60;;;;;;4834032;29;20323;-73
2022/05/19 12:37:36;;;;;;;8.43;5.83;;;17.50;87.90;;;;;;4848025;29;20399;-73
2022/05/19 12:40:18;;;;;;;8.47;6.07;;;17.40;88.10;;;;;;4832401;29;20647;-73
2022/05/19 12:42:44;;;;;;;9.57;6.23;;;17.40;88.70;;;;;;4832395;29;20350;-73
2022/05/19 12:45:20;;;;;;;8.03;7.10;;;17.40;89.20;;;;;;4820625;29;20751;-74
2022/05/19 12:48:38;;;;;;;10.00;7.37;;;17.40;89.30;;;;;;4830749;29;20089;-73
2022/05/19 12:51:11;;;;;;;6.90;5.83;;;17.30;89.20;;;;;;4817523;29;20320;-74
2022/05/19 12:53:49;;;;;;;6.60;4.53;;;17.30;89.50;;;;;;4830659;29;20765;-73
2022/05/19 12:56:41;;;;;;;7.67;4.50;;;17.20;89.40;;;;;;4837144;29;20836;-73
2022/05/19 12:59:26;;;;;;;4.97;4.07;;;17.10;89.30;;;;;;4811681;29;20323;-73
2022/05/19 13:02:03;;;;;;;7.10;3.37;;;17.00;89.40;;;;;;4829034;29;20347;-74
2022/05/19 13:04:29;;;;;;;7.23;3.67;;;16.90;88.90;;;;;;4850275;29;20890;-74
2022/05/19 13:07:06;;;;;;;8.23;4.63;;;16.80;89.20;;;;;;4828800;29;20319;-74
2022/05/19 13:09:34;;;;;;;8.53;4.50;;;16.70;89.40;;;;;;4829257;29;20476;-74
2022/05/19 13:12:16;;;;;;;8.27;4.63;;;16.60;90.10;;;;;;4843514;29;20300;-74